createdAt,value
2022-11-26T00:01:19.322Z,60.70
2022-11-26T00:03:56.867Z,61.00
2022-11-26T00:06:42.999Z,61.40
2022-11-26T00:09:22.021Z,61.90
2022-11-26T00:11:56.957Z,62.30
2022-11-26T00:14:31.853Z,62.90
2022-11-26T00:17:06.743Z,63.00
2022-11-26T00:19:43.365Z,62.90
2022-11-26T00:22:30.460Z,62.90
2022-11-26T00:25:06.031Z,63.20
2022-11-26T00:27:40.962Z,63.30
2022-11-26T00:30:20.314Z,63.00
2022-11-26T00:32:56.175Z,62.90
2022-11-26T00:35:31.067Z,62.90
2022-11-26T00:38:06.064Z,62.90
2022-11-26T00:40:41.345Z,63.00
2022-11-26T00:43:18.104Z,63.10
2022-11-26T00:45:53.035Z,63.00
2022-11-26T00:48:28.042Z,63.00
2022-11-26T00:51:02.946Z,62.90
2022-11-26T00:53:37.864Z,62.90
2022-11-26T00:56:19.994Z,62.80
2022-11-26T00:58:55.238Z,62.80
2022-11-26T01:01:30.282Z,63.00
2022-11-26T01:04:05.239Z,62.90
2022-11-26T01:06:44.270Z,62.90
2022-11-26T01:09:21.528Z,62.80
2022-11-26T01:11:56.442Z,62.80
2022-11-26T01:14:31.308Z,62.80
2022-11-26T01:17:10.432Z,62.80
2022-11-26T01:19:45.317Z,62.70
2022-11-26T01:22:23.091Z,62.70
2022-11-26T01:24:57.958Z,62.70
2022-11-26T01:27:32.965Z,62.80
2022-11-26T01:30:25.174Z,62.90
2022-11-26T01:33:01.086Z,62.90
2022-11-26T01:35:36.839Z,63.00
2022-11-26T01:38:15.678Z,63.00
2022-11-26T01:41:28.568Z,63.00
2022-11-26T01:44:06.436Z,63.00
2022-11-26T01:46:41.679Z,63.00
2022-11-26T01:49:19.006Z,62.90
2022-11-26T01:52:23.941Z,62.60
2022-11-26T01:54:59.027Z,62.40
2022-11-26T01:57:38.498Z,62.20
2022-11-26T02:00:14.294Z,62.20
2022-11-26T02:02:49.553Z,62.40
2022-11-26T02:05:28.651Z,62.60
2022-11-26T02:08:03.820Z,62.80
2022-11-26T02:10:38.822Z,62.80
2022-11-26T02:13:13.841Z,63.20
2022-11-26T02:16:22.003Z,63.60
2022-11-26T02:19:36.650Z,64.10
2022-11-26T02:22:26.385Z,64.40
2022-11-26T02:25:38.446Z,64.10
2022-11-26T02:28:38.174Z,64.50
2022-11-26T02:31:44.653Z,64.60
2022-11-26T02:34:22.623Z,64.60
2022-11-26T02:37:02.311Z,64.80
2022-11-26T02:39:37.158Z,65.00
2022-11-26T02:42:27.137Z,65.20
2022-11-26T02:45:17.350Z,65.50
2022-11-26T02:47:58.665Z,65.60
2022-11-26T02:50:58.347Z,65.70
2022-11-26T02:53:35.081Z,65.90
2022-11-26T02:56:16.282Z,66.00
2022-11-26T02:58:53.519Z,66.20
2022-11-26T03:02:02.208Z,66.40
2022-11-26T03:04:47.226Z,66.50
2022-11-26T03:07:22.879Z,66.60
2022-11-26T03:10:01.149Z,66.90
2022-11-26T03:12:35.981Z,67.00
2022-11-26T03:15:11.483Z,67.30
2022-11-26T03:17:46.403Z,67.50
2022-11-26T03:20:21.286Z,67.70
2022-11-26T03:22:56.108Z,67.80
2022-11-26T03:25:31.095Z,67.90
2022-11-26T03:28:06.410Z,67.80
2022-11-26T03:30:41.278Z,67.80
2022-11-26T03:33:16.141Z,67.80
2022-11-26T03:35:50.993Z,68.00
2022-11-26T03:38:25.849Z,68.00
2022-11-26T03:41:05.149Z,68.00
2022-11-26T03:43:39.973Z,68.00
2022-11-26T03:46:15.207Z,68.10
2022-11-26T03:48:50.062Z,68.20
2022-11-26T03:51:24.872Z,68.40
2022-11-26T03:53:59.755Z,68.90
2022-11-26T03:56:34.726Z,69.20
2022-11-26T03:59:09.532Z,69.70
2022-11-26T04:01:44.635Z,69.90
2022-11-26T04:04:19.479Z,70.00
2022-11-26T04:06:54.315Z,70.20
2022-11-26T04:09:29.153Z,70.30
2022-11-26T04:12:04.451Z,70.70
2022-11-26T04:14:39.447Z,72.00
2022-11-26T04:17:14.536Z,72.30
2022-11-26T04:19:49.434Z,72.10
2022-11-26T04:22:24.319Z,71.80
2022-11-26T04:24:59.207Z,71.50
2022-11-26T04:27:34.540Z,71.20
2022-11-26T04:30:10.099Z,70.90
2022-11-26T04:32:44.970Z,70.60
2022-11-26T04:35:19.970Z,70.40
2022-11-26T04:37:54.809Z,70.80
2022-11-26T04:40:29.733Z,70.90
2022-11-26T04:43:05.302Z,71.20
2022-11-26T04:45:40.298Z,71.70
2022-11-26T04:48:15.264Z,71.80
2022-11-26T04:50:50.567Z,72.00
2022-11-26T04:53:25.484Z,71.80
2022-11-26T04:56:00.541Z,71.80
2022-11-26T04:58:35.941Z,71.60
2022-11-26T05:01:10.955Z,71.20
2022-11-26T05:03:45.889Z,71.20
2022-11-26T05:06:21.841Z,71.10
2022-11-26T05:08:56.790Z,70.80
2022-11-26T05:11:31.717Z,70.60
2022-11-26T05:14:06.549Z,70.40
2022-11-26T05:16:41.476Z,70.20
2022-11-26T05:19:16.605Z,69.80
2022-11-26T05:21:51.498Z,69.60
2022-11-26T05:24:26.378Z,69.30
2022-11-26T05:27:01.219Z,69.00
2022-11-26T05:29:36.037Z,68.80
2022-11-26T05:32:10.933Z,68.90
2022-11-26T05:34:45.891Z,68.90
2022-11-26T05:37:20.727Z,69.10
2022-11-26T05:39:55.567Z,69.10
2022-11-26T05:42:30.487Z,69.30
2022-11-26T05:45:06.121Z,69.60
2022-11-26T05:47:40.997Z,69.70
2022-11-26T05:50:15.842Z,69.90
2022-11-26T05:52:50.832Z,69.90
2022-11-26T05:55:25.905Z,70.20
2022-11-26T05:58:00.781Z,70.80
2022-11-26T06:00:35.609Z,71.10
2022-11-26T06:03:11.448Z,71.30
2022-11-26T06:05:46.451Z,71.70
2022-11-26T06:08:21.288Z,72.10
2022-11-26T06:10:56.124Z,72.50
2022-11-26T06:13:31.066Z,72.20
2022-11-26T06:16:06.639Z,72.10
2022-11-26T06:18:41.531Z,72.20
2022-11-26T06:21:16.630Z,72.00
2022-11-26T06:23:57.603Z,72.00
2022-11-26T06:26:33.878Z,72.30
2022-11-26T06:29:08.757Z,72.50
2022-11-26T06:31:43.777Z,72.60
2022-11-26T06:34:18.632Z,72.60
2022-11-26T06:36:53.510Z,72.40
2022-11-26T06:39:28.458Z,72.80
2022-11-26T06:42:03.346Z,73.40
2022-11-26T06:44:38.373Z,73.60
2022-11-26T06:47:13.973Z,74.10
2022-11-26T06:49:48.849Z,74.10
2022-11-26T06:52:23.792Z,74.30
2022-11-26T06:54:58.607Z,74.40
2022-11-26T06:57:33.438Z,74.60
2022-11-26T07:00:09.194Z,74.90
2022-11-26T07:02:44.233Z,74.10
2022-11-26T07:05:19.149Z,73.90
2022-11-26T07:07:54.039Z,73.80
2022-11-26T07:10:29.191Z,73.50
2022-11-26T07:13:04.151Z,73.10
2022-11-26T07:15:39.017Z,72.80
2022-11-26T07:18:13.869Z,72.50
2022-11-26T07:20:48.765Z,72.20
2022-11-26T07:23:23.803Z,72.30
2022-11-26T07:26:00.112Z,72.10
2022-11-26T07:28:35.993Z,71.90
2022-11-26T07:31:16.808Z,72.10
2022-11-26T07:33:52.233Z,72.10
2022-11-26T07:36:30.291Z,72.50
2022-11-26T07:39:05.206Z,72.80
2022-11-26T07:41:40.087Z,72.90
2022-11-26T07:44:15.071Z,73.20
2022-11-26T07:46:49.984Z,73.20
2022-11-26T07:49:24.845Z,73.10
2022-11-26T07:51:59.674Z,73.10
2022-11-26T07:54:34.496Z,73.10
2022-11-26T07:57:10.418Z,72.80
2022-11-26T07:59:45.219Z,72.40
2022-11-26T08:02:20.124Z,71.80
2022-11-26T08:04:54.962Z,71.40
2022-11-26T08:07:29.848Z,71.00
2022-11-26T08:10:05.810Z,70.70
2022-11-26T08:12:40.644Z,70.60
2022-11-26T08:15:16.166Z,70.40
2022-11-26T08:17:57.909Z,70.40
2022-11-26T08:20:32.753Z,70.10
2022-11-26T08:23:07.577Z,69.90
2022-11-26T08:26:06.167Z,69.50
2022-11-26T08:28:37.332Z,69.20
2022-11-26T08:31:15.944Z,69.00
2022-11-26T08:33:50.985Z,68.50
2022-11-26T08:36:27.443Z,67.90
2022-11-26T08:39:02.348Z,67.20
2022-11-26T08:41:37.164Z,66.70
2022-11-26T08:44:12.022Z,66.60
2022-11-26T08:46:46.878Z,66.70
2022-11-26T08:49:21.722Z,66.50
2022-11-26T08:51:56.965Z,66.40
2022-11-26T08:54:31.811Z,66.20
2022-11-26T08:57:06.666Z,66.00
2022-11-26T08:59:41.499Z,65.70
2022-11-26T09:02:18.886Z,65.50
2022-11-26T09:04:53.929Z,65.60
2022-11-26T09:07:28.826Z,66.10
2022-11-26T09:10:04.442Z,66.60
2022-11-26T09:12:39.292Z,67.00
2022-11-26T09:15:14.240Z,67.00
2022-11-26T09:17:49.115Z,66.40
2022-11-26T09:20:24.057Z,65.90
2022-11-26T09:22:59.344Z,65.50
2022-11-26T09:25:34.168Z,65.50
2022-11-26T09:28:09.019Z,65.80
2022-11-26T09:30:43.866Z,66.00
2022-11-26T09:33:18.705Z,66.30
2022-11-26T09:35:53.540Z,66.70
2022-11-26T09:38:28.369Z,67.30
2022-11-26T09:41:43.308Z,67.50
2022-11-26T09:44:26.054Z,68.10
2022-11-26T09:47:19.057Z,68.10
2022-11-26T09:50:14.782Z,69.20
2022-11-26T09:52:53.895Z,69.00
2022-11-26T09:55:36.401Z,68.90
2022-11-26T09:58:49.465Z,68.90
2022-11-26T10:01:24.876Z,68.70
2022-11-26T10:04:00.384Z,68.60
2022-11-26T10:06:56.227Z,68.40
2022-11-26T10:10:09.450Z,67.80
2022-11-26T10:13:47.944Z,67.30
2022-11-26T10:16:51.426Z,66.40
2022-11-26T10:19:59.193Z,66.10
2022-11-26T10:22:59.236Z,65.30
2022-11-26T10:25:46.354Z,64.60
2022-11-26T10:28:43.803Z,63.80
2022-11-26T10:31:27.272Z,62.00
2022-11-26T10:34:17.152Z,60.20
2022-11-26T10:36:52.166Z,59.40
2022-11-26T10:39:28.342Z,58.20
2022-11-26T10:42:22.710Z,58.30
2022-11-26T10:45:17.618Z,57.90
2022-11-26T10:47:52.804Z,57.20
2022-11-26T10:53:25.835Z,55.60
2022-11-26T10:56:05.746Z,54.90
2022-11-26T10:58:43.081Z,54.50
2022-11-26T11:01:18.277Z,53.80
2022-11-26T11:04:13.866Z,53.00
2022-11-26T11:06:48.731Z,51.70
2022-11-26T11:09:35.764Z,49.20
2022-11-26T11:12:25.822Z,48.90
2022-11-26T11:15:27.812Z,47.30
2022-11-26T11:18:13.347Z,45.80
2022-11-26T11:20:57.831Z,45.10
2022-11-26T11:24:07.243Z,44.80
2022-11-26T11:26:44.665Z,44.50
2022-11-26T11:29:36.797Z,44.50
2022-11-26T11:32:40.751Z,43.90
2022-11-26T11:35:30.229Z,42.90
2022-11-26T11:38:05.126Z,42.10
2022-11-26T11:40:42.160Z,41.80
2022-11-26T11:43:19.864Z,41.30
2022-11-26T11:46:21.997Z,41.80
2022-11-26T11:49:30.616Z,41.20
2022-11-26T11:52:53.471Z,41.80
2022-11-26T11:55:45.507Z,41.50
2022-11-26T11:58:41.787Z,40.70
2022-11-26T12:01:58.009Z,40.30
2022-11-26T12:05:01.540Z,41.30
2022-11-26T12:07:44.601Z,38.50
2022-11-26T12:10:46.857Z,36.00
2022-11-26T12:13:23.601Z,37.00
2022-11-26T12:16:05.669Z,37.60
2022-11-26T12:19:12.548Z,35.90
2022-11-26T12:21:55.160Z,36.50
2022-11-26T12:24:55.488Z,37.90
2022-11-26T12:27:43.650Z,38.50
2022-11-26T12:30:26.483Z,35.70
2022-11-26T12:33:13.416Z,34.10
2022-11-26T12:35:59.560Z,37.50
2022-11-26T12:38:45.373Z,35.50
2022-11-26T12:41:47.554Z,37.70
2022-11-26T12:44:38.254Z,38.60
2022-11-26T12:47:42.332Z,37.30
2022-11-26T12:50:38.275Z,38.70
2022-11-26T12:53:45.257Z,39.30
2022-11-26T12:56:41.581Z,38.60
2022-11-26T12:59:44.201Z,38.90
2022-11-26T13:02:25.167Z,39.20
2022-11-26T13:05:00.494Z,40.30
2022-11-26T13:07:56.691Z,40.70
2022-11-26T13:10:57.423Z,41.10
2022-11-26T13:13:44.209Z,39.30
2022-11-26T13:17:12.878Z,39.60
2022-11-26T13:19:58.805Z,40.00
2022-11-26T13:23:20.853Z,39.90
2022-11-26T13:26:03.503Z,40.60
2022-11-26T13:28:48.253Z,41.50
2022-11-26T13:31:58.284Z,42.20
2022-11-26T13:34:59.496Z,41.50
2022-11-26T13:37:58.234Z,42.10
2022-11-26T13:41:02.479Z,43.50
2022-11-26T13:44:11.228Z,42.30
2022-11-26T13:47:06.229Z,43.60
2022-11-26T13:49:50.359Z,42.60
2022-11-26T13:52:49.313Z,41.20
2022-11-26T13:55:47.299Z,42.30
2022-11-26T13:58:52.808Z,42.10
2022-11-26T14:01:37.215Z,41.30
2022-11-26T14:04:22.766Z,40.80
2022-11-26T14:07:06.604Z,40.00
2022-11-26T14:09:47.094Z,40.80
2022-11-26T14:12:24.753Z,39.00
2022-11-26T14:14:59.589Z,39.30
2022-11-26T14:17:57.265Z,38.40
2022-11-26T14:20:32.096Z,38.50
2022-11-26T14:23:50.641Z,38.70
2022-11-26T14:26:37.208Z,38.50
2022-11-26T14:29:17.546Z,38.40
2022-11-26T14:31:54.890Z,38.10
2022-11-26T14:34:52.000Z,38.20
2022-11-26T14:37:29.984Z,38.10
2022-11-26T14:40:23.205Z,37.40
2022-11-26T14:43:22.726Z,37.60
2022-11-26T14:46:14.961Z,37.00
2022-11-26T14:48:50.483Z,36.60
2022-11-26T14:51:27.458Z,37.10
2022-11-26T14:54:02.387Z,37.00
2022-11-26T14:56:40.898Z,37.40
2022-11-26T14:59:19.081Z,37.90
2022-11-26T15:01:54.017Z,38.50
2022-11-26T15:04:38.969Z,38.30
2022-11-26T15:07:28.289Z,39.60
2022-11-26T15:10:17.824Z,39.40
2022-11-26T15:12:53.529Z,39.50
2022-11-26T15:15:28.458Z,40.20
2022-11-26T15:18:05.966Z,39.80
2022-11-26T15:20:41.477Z,40.20
2022-11-26T15:23:18.874Z,40.30
2022-11-26T15:25:55.035Z,41.00
2022-11-26T15:28:37.736Z,40.50
2022-11-26T15:31:12.624Z,40.90
2022-11-26T15:33:47.955Z,41.30
2022-11-26T15:36:22.955Z,41.40
2022-11-26T15:39:06.497Z,41.90
2022-11-26T15:41:42.775Z,42.00
2022-11-26T15:44:25.507Z,42.00
2022-11-26T15:47:01.204Z,41.80
2022-11-26T15:49:40.185Z,42.20
2022-11-26T15:52:15.979Z,42.50
2022-11-26T15:55:12.474Z,43.10
2022-11-26T15:57:51.601Z,43.50
2022-11-26T16:00:39.834Z,44.20
2022-11-26T16:03:47.123Z,44.80
2022-11-26T16:06:32.233Z,46.20
2022-11-26T16:09:12.518Z,47.20
2022-11-26T16:12:00.996Z,47.90
2022-11-26T16:14:38.920Z,48.10
2022-11-26T16:17:17.395Z,48.40
2022-11-26T16:19:57.230Z,49.20
2022-11-26T16:22:33.563Z,49.40
2022-11-26T16:25:31.209Z,50.00
2022-11-26T16:28:10.422Z,51.00
2022-11-26T16:30:45.297Z,52.00
2022-11-26T16:33:20.263Z,52.20
2022-11-26T16:35:55.627Z,52.30
2022-11-26T16:38:30.527Z,51.90
2022-11-26T16:41:05.546Z,52.30
2022-11-26T16:43:40.448Z,52.80
2022-11-26T16:46:27.662Z,53.40
2022-11-26T16:49:02.879Z,54.00
2022-11-26T16:51:37.704Z,54.60
2022-11-26T16:54:15.729Z,55.00
2022-11-26T16:56:53.311Z,54.90
2022-11-26T16:59:30.913Z,55.00
2022-11-26T17:02:19.058Z,55.00
2022-11-26T17:04:54.094Z,55.30
2022-11-26T17:07:40.227Z,55.60
2022-11-26T17:10:25.375Z,56.20
2022-11-26T17:13:00.225Z,56.20
2022-11-26T17:15:35.304Z,56.20
2022-11-26T17:18:19.535Z,56.30
2022-11-26T17:20:54.468Z,56.50
2022-11-26T17:23:29.317Z,56.70
2022-11-26T17:26:16.785Z,57.20
2022-11-26T17:28:51.799Z,57.50
2022-11-26T17:31:26.708Z,57.50
2022-11-26T17:34:01.672Z,57.60
2022-11-26T17:36:37.146Z,57.80
2022-11-26T17:39:12.113Z,58.00
2022-11-26T17:41:46.934Z,58.50
2022-11-26T17:44:22.176Z,59.30
2022-11-26T17:49:53.699Z,60.30
2022-11-26T17:52:28.513Z,61.00
2022-11-26T17:55:03.530Z,61.10
2022-11-26T17:57:38.737Z,61.10
2022-11-26T18:00:19.864Z,61.30
2022-11-26T18:02:55.660Z,61.50
2022-11-26T18:05:30.523Z,61.30
2022-11-26T18:08:05.651Z,61.00
2022-11-26T18:10:41.167Z,60.50
2022-11-26T18:13:15.993Z,60.10
2022-11-26T18:15:59.417Z,59.90
2022-11-26T18:18:34.318Z,60.40
2022-11-26T18:21:09.154Z,60.10
2022-11-26T18:23:47.998Z,59.70
2022-11-26T18:26:22.868Z,59.40
2022-11-26T18:28:58.378Z,58.90
2022-11-26T18:31:39.296Z,58.90
2022-11-26T18:34:14.640Z,59.10
2022-11-26T18:36:53.650Z,59.40
2022-11-26T18:39:28.930Z,59.20
2022-11-26T18:42:35.323Z,59.20
2022-11-26T18:44:59.183Z,59.30
2022-11-26T18:47:34.145Z,59.10
2022-11-26T18:50:10.480Z,59.10
2022-11-26T18:52:45.390Z,59.50
2022-11-26T18:55:20.311Z,59.40
2022-11-26T18:57:55.256Z,58.90
2022-11-26T19:00:30.155Z,58.90
2022-11-26T19:03:05.933Z,58.70
2022-11-26T19:05:45.609Z,58.70
2022-11-26T19:08:21.600Z,58.80
2022-11-26T19:10:56.430Z,59.30
2022-11-26T19:13:31.731Z,59.10
2022-11-26T19:16:16.499Z,59.00
2022-11-26T19:18:52.605Z,59.00
2022-11-26T19:21:31.023Z,58.90
2022-11-26T19:24:09.154Z,59.00
2022-11-26T19:26:44.007Z,59.40
2022-11-26T19:29:18.980Z,59.40
2022-11-26T19:31:53.871Z,59.60
2022-11-26T19:34:28.806Z,59.70
2022-11-26T19:37:03.709Z,59.50
2022-11-26T19:39:39.081Z,59.30
2022-11-26T19:42:14.238Z,59.20
2022-11-26T19:44:49.362Z,59.10
2022-11-26T19:47:24.304Z,58.90
2022-11-26T19:49:59.232Z,58.80
2022-11-26T19:52:34.710Z,59.00
2022-11-26T19:55:10.191Z,59.00
2022-11-26T19:57:45.049Z,59.20
2022-11-26T20:00:20.176Z,59.40
2022-11-26T20:02:55.084Z,59.30
2022-11-26T20:05:29.982Z,59.30
2022-11-26T20:08:05.196Z,59.00
2022-11-26T20:10:40.176Z,58.60
2022-11-26T20:13:15.040Z,58.60
2022-11-26T20:15:49.865Z,58.30
2022-11-26T20:18:24.738Z,58.80
2022-11-26T20:21:04.231Z,58.90
2022-11-26T20:23:40.001Z,59.10
2022-11-26T20:26:29.475Z,60.10
2022-11-26T20:29:11.931Z,60.20
2022-11-26T20:31:50.213Z,60.00
2022-11-26T20:34:26.524Z,59.90
2022-11-26T20:37:03.160Z,59.80
2022-11-26T20:39:38.213Z,60.00
2022-11-26T20:42:15.286Z,60.40
2022-11-26T20:44:50.241Z,60.40
2022-11-26T20:47:25.145Z,60.10
2022-11-26T20:49:59.980Z,59.70
2022-11-26T20:52:34.960Z,59.50
2022-11-26T20:55:10.045Z,59.30
2022-11-26T20:57:52.074Z,59.30
2022-11-26T21:00:27.767Z,59.70
2022-11-26T21:03:02.806Z,59.70
2022-11-26T21:05:37.885Z,59.70
2022-11-26T21:08:13.459Z,59.70
2022-11-26T21:10:49.507Z,59.90
2022-11-26T21:13:24.341Z,60.30
2022-11-26T21:16:03.330Z,60.90
2022-11-26T21:18:38.453Z,61.80
2022-11-26T21:21:16.677Z,62.10
2022-11-26T21:23:51.721Z,61.90
2022-11-26T21:26:27.100Z,61.60
2022-11-26T21:29:02.472Z,61.70
2022-11-26T21:31:38.186Z,61.90
2022-11-26T21:34:14.533Z,62.40
2022-11-26T21:36:49.378Z,62.80
2022-11-26T21:39:24.317Z,63.10
2022-11-26T21:41:59.173Z,63.20
2022-11-26T21:44:34.100Z,63.00
2022-11-26T21:47:09.051Z,63.10
2022-11-26T21:49:43.908Z,63.40
2022-11-26T21:52:18.740Z,64.00
2022-11-26T21:54:53.757Z,64.50
2022-11-26T21:57:32.146Z,65.00
2022-11-26T22:00:08.439Z,65.60
2022-11-26T22:02:43.455Z,66.00
2022-11-26T22:05:18.296Z,66.30
2022-11-26T22:07:53.274Z,66.40
2022-11-26T22:10:32.019Z,66.50
2022-11-26T22:13:10.793Z,66.70
2022-11-26T22:15:46.101Z,66.80
2022-11-26T22:18:21.014Z,67.00
2022-11-26T22:20:55.861Z,67.30
2022-11-26T22:23:30.728Z,67.60
2022-11-26T22:26:06.044Z,67.80
2022-11-26T22:28:41.425Z,68.00
2022-11-26T22:31:29.158Z,68.20
2022-11-26T22:34:16.958Z,68.50
2022-11-26T22:36:51.905Z,68.90
2022-11-26T22:39:26.760Z,69.20
2022-11-26T22:42:01.793Z,69.50
2022-11-26T22:44:36.630Z,69.60
2022-11-26T22:47:11.460Z,69.80
2022-11-26T22:49:48.060Z,70.00
2022-11-26T22:52:22.882Z,70.20
2022-11-26T22:54:57.701Z,70.30
2022-11-26T22:57:32.512Z,70.30
2022-11-26T23:00:43.290Z,70.40
2022-11-26T23:03:20.523Z,70.20
2022-11-26T23:05:55.842Z,70.60
2022-11-26T23:08:31.065Z,70.70
2022-11-26T23:11:25.461Z,70.70
2022-11-26T23:14:02.014Z,70.70
2022-11-26T23:16:40.279Z,70.30
2022-11-26T23:19:16.799Z,70.20
2022-11-26T23:21:51.701Z,70.00
2022-11-26T23:24:28.833Z,70.20
2022-11-26T23:27:03.707Z,69.60
2022-11-26T23:29:38.855Z,69.30
2022-11-26T23:32:13.872Z,69.20
2022-11-26T23:34:48.722Z,69.10
2022-11-26T23:37:23.908Z,69.10
2022-11-26T23:39:58.756Z,68.90
2022-11-26T23:42:33.582Z,69.00
2022-11-26T23:45:09.326Z,69.00
2022-11-26T23:47:44.234Z,68.40
2022-11-26T23:50:19.221Z,68.30
2022-11-26T23:52:54.041Z,68.00
2022-11-26T23:55:28.879Z,68.00
2022-11-26T23:58:03.702Z,68.10
